Time;durP1;ratioP1;P1;durP2;ratioP2;P2;SDS_P1;SDS_P2;PMS_P1;PMS_P2;Temp;Humidity;BMP_temperature;BMP_pressure;BME280_temperature;BME280_humidity;BME280_pressure;Samples;Min_cycle;Max_cycle;Signal;HPM_P1;HPM_P2
2022/11/25 00:02:43;;;;;;;20.50;3.25;;;;;;;9.35;100.00;100172.91;8320815;28;20467;-49
2022/11/25 00:06:44;;;;;;;14.73;2.88;;;;;;;9.35;100.00;100167.50;8323864;28;20041;-50
2022/11/25 00:10:44;;;;;;;14.20;2.60;;;;;;;9.30;100.00;100164.41;8328166;28;20045;-51
2022/11/25 00:14:45;;;;;;;15.55;2.95;;;;;;;9.23;100.00;100158.72;8327539;28;20060;-50
2022/11/25 00:18:47;;;;;;;25.90;3.50;;;;;;;9.11;100.00;100151.75;8322646;28;20038;-51
2022/11/25 00:22:48;;;;;;;19.45;3.97;;;;;;;9.07;100.00;100141.38;8322745;28;20052;-52
2022/11/25 00:26:48;;;;;;;12.77;3.05;;;;;;;9.01;100.00;100141.94;8324539;28;20575;-49
2022/11/25 00:30:49;;;;;;;16.52;3.00;;;;;;;8.99;100.00;100143.91;8323398;28;20045;-50
2022/11/25 00:34:49;;;;;;;21.27;3.45;;;;;;;9.01;100.00;100136.53;8323827;28;20033;-49
2022/11/25 00:38:54;;;;;;;19.42;3.45;;;;;;;8.98;100.00;100136.81;8323092;28;20042;-50
2022/11/25 00:47:17;;;;;;;18.60;3.85;;;;;;;8.98;100.00;100137.69;8324261;28;20041;-50
2022/11/25 00:51:18;;;;;;;23.83;3.90;;;;;;;8.96;100.00;100136.09;8324146;28;20120;-49
2022/11/25 00:55:18;;;;;;;15.80;3.92;;;;;;;8.94;100.00;100130.00;8323541;28;20041;-50
2022/11/25 00:59:19;;;;;;;22.15;4.65;;;;;;;8.87;100.00;100129.72;8321425;28;20100;-50
2022/11/25 01:03:20;;;;;;;18.23;4.38;;;;;;;8.86;100.00;100132.53;8323668;28;20167;-51
2022/11/25 01:07:20;;;;;;;11.85;4.38;;;;;;;8.85;100.00;100120.94;8322949;28;20411;-51
2022/11/25 01:11:22;;;;;;;14.95;3.40;;;;;;;8.97;100.00;100129.75;8322650;28;20498;-49
2022/11/25 01:15:22;;;;;;;21.63;4.68;;;;;;;8.97;100.00;100135.13;8322685;28;20025;-50
2022/11/25 01:19:23;;;;;;;22.50;4.32;;;;;;;8.96;100.00;100133.41;8323510;28;20045;-50
2022/11/25 01:23:24;;;;;;;18.15;4.18;;;;;;;9.00;100.00;100134.84;8323396;28;20037;-50
2022/11/25 01:27:26;;;;;;;20.30;3.72;;;;;;;9.01;100.00;100126.63;8321824;28;20513;-53
2022/11/25 01:31:30;;;;;;;17.50;3.42;;;;;;;9.21;100.00;100127.50;8322010;28;20441;-51
2022/11/25 01:35:30;;;;;;;9.88;2.97;;;;;;;9.49;100.00;100121.22;8323802;28;20037;-49
2022/11/25 01:39:31;;;;;;;14.80;3.22;;;;;;;9.57;100.00;100124.91;8321980;28;20040;-50
2022/11/25 01:43:32;;;;;;;21.35;3.58;;;;;;;9.55;100.00;100115.25;8322019;28;20061;-49
2022/11/25 01:47:33;;;;;;;16.58;3.38;;;;;;;9.53;100.00;100118.09;8322136;28;20117;-51
2022/11/25 01:51:51;;;;;;;14.07;3.50;;;;;;;9.56;100.00;100116.94;8322373;28;20494;-53
2022/11/25 01:55:57;;;;;;;12.88;3.05;;;;;;;9.58;100.00;100120.38;8322901;28;20495;-52
2022/11/25 02:00:00;;;;;;;18.13;3.72;;;;;;;9.64;100.00;100117.09;8318509;28;20041;-49
2022/11/25 02:04:06;;;;;;;21.02;3.95;;;;;;;9.59;100.00;100117.53;8298426;28;20491;-53
2022/11/25 02:08:07;;;;;;;24.23;3.30;;;;;;;9.62;100.00;100122.63;8288681;28;20064;-49
2022/11/25 02:12:10;;;;;;;14.38;3.38;;;;;;;9.59;100.00;100105.88;8301634;28;20042;-50
2022/11/25 02:16:11;;;;;;;19.30;3.55;;;;;;;9.51;100.00;100108.44;8322006;28;20380;-49
2022/11/25 02:20:18;;;;;;;13.75;3.30;;;;;;;9.42;100.00;100114.69;8320421;28;20124;-49
2022/11/25 02:24:44;;;;;;;15.88;3.00;;;;;;;9.51;100.00;100124.63;8322496;28;20033;-50
2022/11/25 02:28:47;;;;;;;16.92;3.20;;;;;;;9.53;100.00;100126.19;8321019;28;20087;-51
2022/11/25 02:32:50;;;;;;;15.52;4.63;;;;;;;9.57;100.00;100118.66;8321007;28;20037;-50
2022/11/25 02:36:51;;;;;;;10.82;3.53;;;;;;;9.59;100.00;100106.72;8320656;28;20510;-49
2022/11/25 02:41:02;;;;;;;15.60;3.22;;;;;;;9.62;100.00;100102.88;8337415;28;20040;-52
2022/11/25 02:45:04;;;;;;;18.33;3.72;;;;;;;9.51;100.00;100092.25;8322592;28;20531;-50
2022/11/25 02:49:04;;;;;;;16.70;3.30;;;;;;;9.48;100.00;100103.31;8321541;28;20049;-49
2022/11/25 02:53:05;;;;;;;16.95;4.25;;;;;;;9.54;100.00;100097.34;8327258;28;20044;-50
2022/11/25 02:57:06;;;;;;;13.68;3.47;;;;;;;9.60;100.00;100104.88;8326674;28;20037;-49
2022/11/25 03:01:08;;;;;;;12.75;3.08;;;;;;;9.61;100.00;100107.41;8327075;28;20495;-50
2022/11/25 03:05:09;;;;;;;16.50;4.10;;;;;;;9.57;100.00;100115.94;8326919;28;20472;-49
2022/11/25 03:09:12;;;;;;;19.10;3.50;;;;;;;9.55;100.00;100126.88;8326471;28;20111;-51
2022/11/25 03:13:13;;;;;;;12.40;2.70;;;;;;;9.56;100.00;100127.75;8326295;28;20041;-52
2022/11/25 03:17:14;;;;;;;10.75;2.83;;;;;;;9.52;100.00;100131.75;8326959;28;20042;-50
2022/11/25 03:21:15;;;;;;;13.88;2.67;;;;;;;9.52;100.00;100137.13;8325300;28;20506;-50
2022/11/25 03:25:15;;;;;;;14.02;3.80;;;;;;;9.43;100.00;100143.38;8327566;28;20111;-50
2022/11/25 03:29:17;;;;;;;18.60;3.85;;;;;;;9.42;100.00;100138.97;8325467;28;20442;-49
2022/11/25 03:33:18;;;;;;;14.45;3.25;;;;;;;9.41;100.00;100153.47;8326587;28;20090;-50
2022/11/25 03:37:19;;;;;;;15.65;2.90;;;;;;;9.38;100.00;100151.91;8326554;28;20422;-49
2022/11/25 03:41:21;;;;;;;13.90;3.20;;;;;;;9.44;100.00;100155.88;8326564;28;20246;-48
2022/11/25 03:45:22;;;;;;;17.90;4.45;;;;;;;9.39;100.00;100150.03;8326480;28;20040;-51
2022/11/25 03:49:24;;;;;;;20.98;4.10;;;;;;;9.32;100.00;100157.00;8326232;28;20044;-49
2022/11/25 03:53:24;;;;;;;21.23;3.80;;;;;;;9.32;100.00;100152.47;8324745;28;20034;-49
2022/11/25 03:57:26;;;;;;;13.00;3.20;;;;;;;9.33;100.00;100161.44;8325910;28;20049;-49
2022/11/25 04:01:26;;;;;;;13.77;3.75;;;;;;;9.37;100.00;100160.13;8325699;28;20487;-49
2022/11/25 04:05:27;;;;;;;20.30;3.38;;;;;;;9.44;100.00;100163.97;8324922;28;20091;-51
2022/11/25 04:09:31;;;;;;;;;;;;;;;9.46;100.00;100170.09;8325464;28;20531;-49
2022/11/25 04:13:34;;;;;;;14.50;3.30;;;;;;;9.36;100.00;100158.41;8324953;28;19943;-49
2022/11/25 04:17:36;;;;;;;21.33;3.78;;;;;;;9.32;100.00;100165.97;8325355;28;20038;-51
2022/11/25 04:21:36;;;;;;;11.82;3.15;;;;;;;9.32;100.00;100170.50;8325143;28;20037;-51
2022/11/25 04:25:38;;;;;;;15.43;3.15;;;;;;;9.24;100.00;100181.16;8323542;28;20435;-49
2022/11/25 04:29:45;;;;;;;13.23;3.78;;;;;;;9.18;100.00;100176.31;8320786;28;20526;-50
2022/11/25 04:33:48;;;;;;;16.60;3.05;;;;;;;9.14;100.00;100174.88;8323929;28;20057;-51
2022/11/25 04:37:49;;;;;;;16.88;3.30;;;;;;;9.14;100.00;100174.88;8325284;28;20034;-52
2022/11/25 04:42:30;;;;;;;11.77;3.30;;;;;;;9.16;100.00;100172.91;8324334;28;20124;-49
2022/11/25 04:46:18;;;;;;;19.08;4.30;;;;;;;9.22;100.00;100172.34;8324581;28;20040;-49
2022/11/25 04:50:23;;;;;;;16.92;3.58;;;;;;;9.21;100.00;100165.25;8322451;28;20491;-49
2022/11/25 04:54:31;;;;;;;14.57;2.92;;;;;;;9.23;100.00;100179.44;8324085;28;20052;-49
2022/11/25 04:59:41;;;;;;;9.82;3.45;;;;;;;9.27;100.00;100186.25;8323095;28;20045;-50
2022/11/25 05:02:54;;;;;;;19.52;3.97;;;;;;;9.26;100.00;100192.63;8321401;28;20121;-50
2022/11/25 05:06:57;;;;;;;14.27;3.45;;;;;;;9.29;100.00;100201.31;8318912;28;20571;-49
2022/11/25 05:10:59;;;;;;;17.77;4.55;;;;;;;9.28;100.00;100204.13;8300017;28;20033;-51
2022/11/25 05:15:00;;;;;;;17.65;3.45;;;;;;;9.22;100.00;100205.56;8316679;28;20133;-50
2022/11/25 05:19:01;;;;;;;15.38;3.88;;;;;;;9.20;100.00;100214.75;8317386;28;20175;-52
2022/11/25 05:23:02;;;;;;;19.55;4.20;;;;;;;9.21;100.00;100213.78;8319726;28;20033;-49
2022/11/25 05:27:04;;;;;;;14.82;3.05;;;;;;;9.24;100.00;100191.94;8319186;28;20033;-54
2022/11/25 05:31:05;;;;;;;14.65;3.92;;;;;;;9.38;100.00;100199.59;8319272;28;20040;-54
2022/11/25 05:35:07;;;;;;;16.80;3.33;;;;;;;9.53;100.00;100207.16;8319306;28;20121;-52
2022/11/25 05:39:08;;;;;;;16.77;3.20;;;;;;;9.57;100.00;100210.41;8318829;28;20036;-51
2022/11/25 05:43:28;;;;;;;13.95;3.22;;;;;;;9.53;100.00;100211.69;8319126;28;20037;-50
2022/11/25 05:47:29;;;;;;;15.45;3.38;;;;;;;9.45;100.00;100211.53;8318754;28;20040;-53
2022/11/25 05:51:30;;;;;;;14.15;3.95;;;;;;;9.43;100.00;100225.16;8318491;28;20041;-50
2022/11/25 05:55:33;;;;;;;13.38;3.58;;;;;;;9.29;100.00;100225.59;8312315;28;20402;-54
2022/11/25 05:59:37;;;;;;;19.35;3.70;;;;;;;9.28;100.00;100236.50;8317488;28;20029;-51
2022/11/25 06:03:42;;;;;;;11.05;3.22;;;;;;;9.31;100.00;100236.22;8301311;28;20112;-52
2022/11/25 06:07:44;;;;;;;12.65;3.03;;;;;;;9.34;100.00;100247.56;8315561;28;20045;-54
2022/11/25 06:11:45;;;;;;;14.35;3.38;;;;;;;9.33;100.00;100250.44;8317580;28;20124;-54
2022/11/25 06:15:46;;;;;;;17.33;4.18;;;;;;;9.37;100.00;100268.88;8316499;28;20045;-53
2022/11/25 06:19:50;;;;;;;14.63;3.20;;;;;;;9.36;100.00;100266.31;8315123;28;20037;-51
2022/11/25 06:23:50;;;;;;;14.30;3.78;;;;;;;9.31;100.00;100274.00;8317726;28;20037;-51
2022/11/25 06:27:52;;;;;;;14.63;3.38;;;;;;;9.29;100.00;100276.84;8323577;28;20044;-54
2022/11/25 06:31:53;;;;;;;17.05;3.67;;;;;;;9.20;100.00;100282.19;8322944;28;20121;-51
2022/11/25 06:36:12;;;;;;;12.88;3.38;;;;;;;9.24;100.00;100289.03;8314111;28;20086;-53
2022/11/25 06:40:13;;;;;;;18.05;6.13;;;;;;;9.28;100.00;100298.56;8317755;28;20052;-53
2022/11/25 06:44:14;;;;;;;19.38;6.80;;;;;;;9.29;100.00;100301.09;8322463;28;20037;-53
2022/11/25 06:48:14;;;;;;;14.98;4.10;;;;;;;9.26;100.00;100308.63;8324635;28;20195;-54
2022/11/25 06:52:15;;;;;;;18.88;5.03;;;;;;;9.27;100.00;100294.16;8322752;28;20503;-52
2022/11/25 06:56:18;;;;;;;39.97;12.82;;;;;;;9.10;100.00;100292.09;8325052;28;20468;-53
2022/11/25 07:00:19;;;;;;;19.42;4.95;;;;;;;9.10;100.00;100297.50;8323090;28;20041;-55
2022/11/25 07:04:19;;;;;;;12.77;3.33;;;;;;;9.05;100.00;100297.91;8322802;28;20045;-55
2022/11/25 07:08:23;;;;;;;14.02;3.70;;;;;;;8.99;100.00;100305.66;8315544;28;20038;-52
2022/11/25 07:12:23;;;;;;;11.73;3.30;;;;;;;8.67;100.00;100310.34;8312780;28;20037;-54
2022/11/25 07:16:24;;;;;;;18.73;4.40;;;;;;;8.47;100.00;100313.91;8321927;28;20076;-52
2022/11/25 07:20:26;;;;;;;15.57;4.15;;;;;;;8.65;100.00;100323.09;8323628;28;20037;-54
2022/11/25 07:24:27;;;;;;;15.05;3.80;;;;;;;8.61;100.00;100330.63;8324888;28;20087;-54
2022/11/25 07:28:27;;;;;;;16.23;3.83;;;;;;;8.66;100.00;100330.22;8324975;28;20045;-53
2022/11/25 07:32:32;;;;;;;10.45;4.18;;;;;;;8.67;100.00;100340.88;8326453;28;20526;-53
2022/11/25 07:36:34;;;;;;;;;;;;;;;8.78;100.00;100334.53;8327334;28;20037;-54
2022/11/25 07:40:34;;;;;;;10.63;2.38;;;;;;;8.86;100.00;100353.56;8348555;28;19917;-52
2022/11/25 07:44:35;;;;;;;5.97;2.63;;;;;;;8.86;100.00;100353.56;8326297;28;20149;-52
2022/11/25 07:48:58;;;;;;;6.57;1.73;;;;;;;9.07;100.00;100367.88;8325400;28;20065;-54
2022/11/25 07:52:59;;;;;;;5.07;2.15;;;;;;;9.07;100.00;100378.66;8325066;28;20033;-51
2022/11/25 07:56:59;;;;;;;5.25;1.73;;;;;;;9.08;100.00;100383.06;8347938;28;20100;-53
2022/11/25 08:01:03;;;;;;;7.95;1.88;;;;;;;9.13;100.00;100384.38;8347288;28;20041;-51
2022/11/25 08:05:04;;;;;;;11.05;3.20;;;;;;;9.05;100.00;100386.88;8323668;28;20483;-54
2022/11/25 08:09:05;;;;;;;6.28;2.38;;;;;;;8.99;100.00;100394.66;8323236;28;20383;-50
2022/11/25 08:13:05;;;;;;;8.15;2.85;;;;;;;8.96;100.00;100394.91;8323081;28;20037;-55
2022/11/25 08:17:06;;;;;;;6.25;2.80;;;;;;;9.05;100.00;100392.28;8323574;28;20116;-53
2022/11/25 08:21:09;;;;;;;9.70;3.42;;;;;;;9.26;100.00;100400.31;8323275;28;20045;-54
2022/11/25 08:25:10;;;;;;;7.80;3.42;;;;;;;9.36;100.00;100414.69;8320418;28;20049;-52
2022/11/25 08:29:14;;;;;;;5.45;3.15;;;;;;;9.35;100.00;100415.69;8322734;28;20129;-52
2022/11/25 08:33:15;;;;;;;7.60;3.50;;;;;;;10.17;100.00;100426.22;8313033;28;20116;-52
2022/11/25 08:37:15;;;;;;;7.60;2.88;;;;;;;11.43;100.00;100433.03;8325187;28;20038;-51
2022/11/25 08:41:21;;;;;;;6.65;2.28;;;;;;;13.16;93.02;100442.56;8323338;28;20127;-53
2022/11/25 08:45:22;;;;;;;5.43;1.38;;;;;;;14.19;87.50;100443.25;8324102;28;20471;-51
2022/11/25 08:49:25;;;;;;;4.82;1.52;;;;;;;14.46;84.44;100440.28;8323586;28;20068;-54
2022/11/25 08:53:26;;;;;;;6.18;1.40;;;;;;;15.14;83.07;100458.03;8324806;28;20394;-51
2022/11/25 08:57:26;;;;;;;4.72;1.70;;;;;;;15.68;79.09;100454.53;8324440;28;20060;-55
2022/11/25 09:01:27;;;;;;;5.50;1.70;;;;;;;15.44;79.50;100465.47;8324018;28;20380;-53
2022/11/25 09:05:34;;;;;;;4.00;1.55;;;;;;;15.79;77.27;100455.19;8323920;28;20036;-51
2022/11/25 09:09:35;;;;;;;3.53;1.42;;;;;;;16.81;73.56;100459.44;8322345;28;20048;-55
2022/11/25 09:13:36;;;;;;;9.20;2.00;;;;;;;16.84;72.84;100470.00;8323892;28;20112;-52
2022/11/25 09:17:36;;;;;;;5.88;1.52;;;;;;;17.05;72.54;100470.19;8323535;28;20396;-54
2022/11/25 09:21:37;;;;;;;5.28;2.00;;;;;;;16.94;74.06;100478.81;8323165;28;20052;-51
2022/11/25 09:25:38;;;;;;;10.07;1.95;;;;;;;16.95;72.14;100488.69;8323634;28;20053;-51
2022/11/25 09:29:38;;;;;;;9.30;2.17;;;;;;;17.08;71.67;100491.69;8323341;28;20072;-50
2022/11/25 09:33:39;;;;;;;5.43;1.63;;;;;;;16.85;72.55;100491.69;8323176;28;20044;-54
2022/11/25 09:37:40;;;;;;;14.15;1.80;;;;;;;17.35;72.09;100507.47;8323681;28;20037;-54
2022/11/25 09:46:41;;;;;;;5.80;1.55;;;;;;;18.30;68.84;100512.97;8418317;27;20456;-52
2022/11/25 09:51:12;;;;;;;7.45;1.52;;;;;;;17.68;71.51;100527.22;8417470;28;20611;-52
2022/11/25 09:55:18;;;;;;;9.15;2.00;;;;;;;17.90;70.91;100527.13;8417892;28;20044;-52
2022/11/25 09:59:35;;;;;;;5.95;1.55;;;;;;;18.58;67.46;100521.38;8417350;28;20036;-54
2022/11/25 10:03:50;;;;;;;10.50;1.92;;;;;;;18.68;66.18;100528.25;8417080;28;20036;-53
2022/11/25 10:07:56;;;;;;;9.98;1.80;;;;;;;18.82;65.17;100530.09;8417295;28;20044;-51
2022/11/25 10:12:19;;;;;;;5.82;1.50;;;;;;;18.94;65.48;100527.72;8417081;28;20055;-53
2022/11/25 10:16:34;;;;;;;7.77;2.17;;;;;;;18.42;65.81;100538.03;8383941;28;20043;-53
2022/11/25 10:20:37;;;;;;;;;;;;;;;18.14;66.37;100540.53;8384305;28;20487;-51
2022/11/25 10:24:38;;;;;;;8.88;1.75;;;;;;;18.50;66.74;100557.06;8383431;28;20527;-54
2022/11/25 10:28:47;;;;;;;7.35;1.65;;;;;;;18.15;66.80;100547.75;8383170;28;20560;-51
2022/11/25 10:33:02;;;;;;;6.70;2.15;;;;;;;17.89;66.91;100558.28;8382984;28;20040;-52
2022/11/25 10:37:11;;;;;;;13.80;2.60;;;;;;;17.37;67.88;100562.81;8383361;28;20128;-52
2022/11/25 10:41:17;;;;;;;9.48;1.90;;;;;;;17.35;68.87;100557.53;8382768;28;20025;-53
2022/11/25 10:45:25;;;;;;;9.60;2.40;;;;;;;16.53;72.15;100562.00;8369448;28;20086;-54
2022/11/25 10:49:34;;;;;;;15.32;2.55;;;;;;;17.28;70.21;100570.25;8380996;28;20208;-52
2022/11/25 10:53:36;;;;;;;15.07;2.05;;;;;;;17.92;67.65;100573.44;8381160;28;20039;-52
2022/11/25 10:57:37;;;;;;;16.13;1.92;;;;;;;17.91;67.65;100578.09;8359733;28;20037;-54
2022/11/25 11:01:39;;;;;;;17.65;2.47;;;;;;;17.75;68.21;100589.16;8352029;28;20036;-51
2022/11/25 11:05:50;;;;;;;17.98;2.47;;;;;;;16.07;72.91;100588.19;8336635;28;20037;-54
2022/11/25 11:09:51;;;;;;;12.23;2.70;;;;;;;16.76;71.72;100601.97;8354847;28;20072;-53
2022/11/25 11:14:13;;;;;;;18.67;3.42;;;;;;;16.08;75.25;100603.56;8354990;28;20052;-54
2022/11/25 11:18:39;;;;;;;21.17;2.90;;;;;;;16.51;73.81;100602.25;8353598;28;20123;-52
2022/11/25 11:22:55;;;;;;;21.10;3.60;;;;;;;16.48;72.66;100614.38;8356131;28;20415;-51
2022/11/25 11:31:23;;;;;;;23.42;2.67;;;;;;;17.00;70.41;100609.19;8359158;27;20777;-51
2022/11/25 11:35:54;;;;;;;15.57;2.80;;;;;;;17.11;70.22;100619.72;8348679;28;20033;-54
2022/11/25 11:44:47;;;;;;;15.60;2.85;;;;;;;14.81;78.25;100635.94;8415312;27;20421;-51
2022/11/25 11:49:13;;;;;;;14.80;2.78;;;;;;;15.19;77.28;100635.38;8376200;28;20415;-53
2022/11/25 11:53:30;;;;;;;17.30;2.95;;;;;;;16.61;72.32;100630.19;8379932;28;20053;-55
2022/11/25 12:02:11;;;;;;;20.75;2.85;;;;;;;16.15;72.18;100634.56;8344513;27;20963;-50
2022/11/25 12:06:14;;;;;;;12.80;3.55;;;;;;;17.11;70.48;100638.84;8329937;28;20041;-53
2022/11/25 12:14:54;;;;;;;20.10;2.60;;;;;;;16.01;73.53;100665.25;8318211;28;20367;-53
2022/11/25 12:19:34;;;;;;;12.90;2.50;;;;;;;14.86;76.72;100658.09;8310154;28;20045;-52
2022/11/25 12:23:46;;;;;;;19.15;2.47;;;;;;;14.62;79.12;100658.00;8309967;28;20385;-53
2022/11/25 12:27:56;;;;;;;14.80;2.47;;;;;;;14.39;79.10;100665.00;8312627;28;20033;-53
2022/11/25 12:32:10;;;;;;;15.07;3.03;;;;;;;14.02;80.39;100675.25;8336575;28;20072;-53
2022/11/25 12:36:17;;;;;;;14.93;2.60;;;;;;;14.11;80.95;100678.88;8309834;28;20056;-54
2022/11/25 12:40:23;;;;;;;17.75;2.92;;;;;;;13.94;81.62;100677.94;8310099;28;20042;-54
2022/11/25 12:44:33;;;;;;;11.77;2.47;;;;;;;13.85;82.55;100685.16;8311280;28;20037;-54
2022/11/25 12:48:40;;;;;;;16.42;2.53;;;;;;;13.75;81.50;100688.97;8308807;28;20626;-53
2022/11/25 12:57:33;;;;;;;12.18;2.22;;;;;;;13.69;81.64;100695.03;8410711;27;20431;-51
2022/11/25 13:01:52;;;;;;;16.88;2.42;;;;;;;13.55;82.77;100698.31;8344487;28;20067;-54
2022/11/25 13:06:28;;;;;;;14.93;2.72;;;;;;;13.38;83.49;100713.59;8359479;28;20067;-52
2022/11/25 13:10:45;;;;;;;13.60;2.45;;;;;;;13.29;83.84;100713.63;8376572;28;20546;-54
2022/11/25 13:15:06;;;;;;;20.35;2.85;;;;;;;13.35;85.04;100713.88;8375769;28;20438;-51
2022/11/25 13:19:10;;;;;;;12.90;2.15;;;;;;;13.32;84.18;100719.63;8342455;28;20045;-53
2022/11/25 13:32:30;;;;;;;16.73;2.28;;;;;;;13.32;85.50;100729.63;8412591;27;20356;-52
2022/11/25 13:36:50;;;;;;;20.15;3.10;;;;;;;13.40;84.88;100737.88;8360423;28;20040;-51
2022/11/25 13:40:59;;;;;;;19.75;2.50;;;;;;;13.31;85.81;100749.66;8379313;28;20506;-53
2022/11/25 13:45:00;;;;;;;10.75;2.67;;;;;;;13.32;85.79;100745.91;8377062;28;20506;-55
2022/11/25 13:49:01;;;;;;;17.80;2.58;;;;;;;13.24;85.18;100749.38;8378610;28;20426;-55
2022/11/25 13:53:07;;;;;;;15.13;2.15;;;;;;;13.02;87.13;100765.25;8378688;28;20102;-55
2022/11/25 14:01:24;;;;;;;16.42;2.88;;;;;;;12.99;87.25;100770.94;8383963;27;20479;-53
2022/11/25 14:06:04;;;;;;;19.67;2.50;;;;;;;12.98;87.92;100774.66;8321445;28;20522;-53
2022/11/25 14:10:24;;;;;;;14.60;2.35;;;;;;;12.97;88.04;100775.66;8344974;28;20052;-54
2022/11/25 14:14:53;;;;;;;15.75;2.78;;;;;;;12.88;88.85;100768.41;8342597;28;20036;-53
2022/11/25 14:19:36;;;;;;;15.77;2.13;;;;;;;12.90;88.55;100788.13;8379139;28;20033;-55
2022/11/25 14:24:05;;;;;;;9.90;2.50;;;;;;;12.76;88.25;100780.44;8336131;28;20466;-55
2022/11/25 14:28:26;;;;;;;14.32;2.28;;;;;;;12.73;88.62;100794.31;8363934;28;20064;-53
2022/11/25 14:32:34;;;;;;;15.73;2.17;;;;;;;12.59;89.62;100805.66;8328982;28;20179;-55
2022/11/25 14:36:41;;;;;;;14.20;2.42;;;;;;;12.54;90.10;100810.66;8341470;28;20033;-55
2022/11/25 14:40:50;;;;;;;17.77;3.03;;;;;;;12.45;90.73;100806.09;8332818;28;20041;-55
2022/11/25 14:44:55;;;;;;;17.55;3.03;;;;;;;12.32;91.75;100808.25;8322209;28;20527;-54
2022/11/25 14:48:57;;;;;;;16.52;2.53;;;;;;;12.23;92.47;100815.38;8334835;28;20030;-55
2022/11/25 14:52:58;;;;;;;15.02;3.35;;;;;;;12.11;93.16;100821.97;8332587;28;20342;-54
2022/11/25 14:56:59;;;;;;;16.85;3.28;;;;;;;12.09;93.32;100826.69;8335457;28;20049;-53
2022/11/25 15:01:04;;;;;;;17.25;2.70;;;;;;;12.14;93.20;100837.09;8376228;28;20043;-54
2022/11/25 15:05:25;;;;;;;17.60;3.38;;;;;;;12.18;93.21;100849.34;8350898;28;20041;-54
2022/11/25 15:09:30;;;;;;;12.02;2.90;;;;;;;12.21;92.62;100847.22;8373888;28;20403;-55
2022/11/25 15:13:56;;;;;;;13.93;3.17;;;;;;;12.22;92.73;100856.19;8331065;28;20034;-53
2022/11/25 15:17:57;;;;;;;12.20;3.20;;;;;;;12.12;93.85;100860.75;8318595;28;20124;-53
2022/11/25 15:22:01;;;;;;;14.57;2.75;;;;;;;11.96;95.24;100871.31;8342593;28;20041;-54
2022/11/25 15:26:03;;;;;;;10.60;3.47;;;;;;;11.81;96.21;100882.53;8340816;28;20043;-51
2022/11/25 15:30:28;;;;;;;15.38;3.63;;;;;;;11.79;95.01;100880.97;8342892;28;20041;-51
2022/11/25 15:34:30;;;;;;;14.75;2.83;;;;;;;11.78;95.13;100882.81;8327981;28;20041;-53
2022/11/25 15:38:36;;;;;;;13.85;2.92;;;;;;;11.70;95.74;100893.50;8314840;28;20060;-52
2022/11/25 15:42:40;;;;;;;14.27;2.75;;;;;;;11.74;94.24;100905.75;8317219;28;20124;-52
2022/11/25 15:46:51;;;;;;;12.23;3.45;;;;;;;11.67;94.93;100914.59;8310809;28;20399;-54
2022/11/25 15:50:57;;;;;;;15.68;3.17;;;;;;;11.70;94.27;100920.59;8315920;28;20540;-53
2022/11/25 15:55:04;;;;;;;13.27;3.00;;;;;;;11.71;94.69;100938.53;8323095;28;20033;-51
2022/11/25 15:59:04;;;;;;;16.40;3.22;;;;;;;11.82;93.60;100935.75;8317683;28;20199;-52
2022/11/25 16:03:18;;;;;;;19.13;3.85;;;;;;;11.83;93.70;100948.28;8310649;28;20042;-52
2022/11/25 16:07:22;;;;;;;17.08;3.40;;;;;;;11.89;93.06;100952.28;8321260;28;20041;-51
2022/11/25 16:11:24;;;;;;;12.38;3.30;;;;;;;11.84;93.64;100954.56;8324499;28;20042;-52
2022/11/25 16:15:43;;;;;;;17.50;2.97;;;;;;;11.86;92.99;100975.09;8319792;28;20041;-53
2022/11/25 16:19:46;;;;;;;21.38;2.92;;;;;;;11.86;92.52;100980.50;8309995;28;20076;-51
2022/11/25 16:23:50;;;;;;;14.55;2.40;;;;;;;11.84;92.44;100977.06;8298948;28;20040;-51
2022/11/25 16:27:51;;;;;;;17.15;5.32;;;;;;;11.86;91.77;100985.06;8322640;28;20446;-52
2022/11/25 16:31:52;;;;;;;9.45;2.70;;;;;;;11.90;90.34;100986.53;8306751;28;20293;-51
2022/11/25 16:35:53;;;;;;;12.13;2.20;;;;;;;11.82;89.67;100997.19;8298662;28;20034;-52
2022/11/25 16:39:53;;;;;;;11.93;3.22;;;;;;;11.72;90.19;101001.72;8303468;28;20037;-51
2022/11/25 16:43:54;;;;;;;10.75;2.35;;;;;;;11.51;91.46;101006.28;8309825;28;20048;-54
2022/11/25 16:47:55;;;;;;;10.40;2.35;;;;;;;11.32;92.68;101000.75;8294503;28;20181;-52
2022/11/25 16:51:55;;;;;;;10.90;2.58;;;;;;;11.19;93.22;101009.06;8286614;28;20053;-51
2022/11/25 16:55:56;;;;;;;16.83;3.60;;;;;;;11.05;94.45;101031.06;8285357;28;20539;-51
2022/11/25 16:59:59;;;;;;;14.05;3.00;;;;;;;11.08;95.05;101035.34;8314661;28;20037;-53
2022/11/25 17:04:00;;;;;;;16.02;3.60;;;;;;;11.14;95.38;101040.25;8311875;28;20045;-53
2022/11/25 17:08:00;;;;;;;19.00;4.47;;;;;;;11.16;95.69;101049.94;8314108;28;20083;-54
2022/11/25 17:12:01;;;;;;;13.45;3.80;;;;;;;11.17;95.87;101048.97;8315063;28;20357;-53
2022/11/25 17:16:02;;;;;;;14.15;3.55;;;;;;;11.08;96.29;101063.28;8315784;28;20675;-52
2022/11/25 17:20:04;;;;;;;20.33;3.60;;;;;;;10.92;96.99;101057.41;8313464;28;20029;-54
2022/11/25 17:24:15;;;;;;;11.32;3.88;;;;;;;10.77;98.57;101064.13;8314925;28;20042;-52
2022/11/25 17:28:19;;;;;;;15.95;3.90;;;;;;;10.76;99.91;101062.41;8315483;28;20044;-55
2022/11/25 17:32:20;;;;;;;16.08;3.80;;;;;;;10.83;98.69;101063.59;8291811;28;20047;-51
2022/11/25 17:36:21;;;;;;;15.88;3.00;;;;;;;10.96;97.24;101085.97;8329488;28;20037;-51
2022/11/25 17:40:21;;;;;;;16.60;3.83;;;;;;;10.91;97.32;101093.59;8311491;28;20268;-53
2022/11/25 17:44:25;;;;;;;15.40;3.65;;;;;;;10.86;97.87;101112.03;8301041;28;20422;-54
2022/11/25 17:48:26;;;;;;;12.98;3.55;;;;;;;10.83;98.99;101117.69;8324459;28;20037;-54
2022/11/25 17:52:26;;;;;;;14.57;4.03;;;;;;;10.80;100.00;101123.38;8299297;28;20115;-55
2022/11/25 17:56:28;;;;;;;19.70;4.97;;;;;;;10.88;98.83;101141.66;8304232;28;20298;-55
2022/11/25 18:00:32;;;;;;;20.55;6.00;;;;;;;11.03;98.20;101146.66;8302679;28;20337;-55
2022/11/25 18:04:34;;;;;;;32.45;10.05;;;;;;;11.14;97.18;101159.31;8312499;28;20445;-54
2022/11/25 18:08:35;;;;;;;15.77;6.07;;;;;;;11.22;96.51;101152.25;8299439;28;20547;-54
2022/11/25 18:12:36;;;;;;;23.02;6.80;;;;;;;11.18;96.93;101160.75;8298683;28;20450;-56
2022/11/25 18:16:36;;;;;;;26.77;5.22;;;;;;;11.15;96.83;101172.72;8306032;28;20053;-55
2022/11/25 18:20:37;;;;;;;17.38;4.28;;;;;;;11.16;97.17;101174.41;8289739;28;20047;-54
2022/11/25 18:24:37;;;;;;;13.57;3.38;;;;;;;11.16;97.13;101174.41;8310796;28;20091;-55
2022/11/25 18:28:38;;;;;;;17.05;4.15;;;;;;;11.09;97.88;101169.66;8298421;28;20045;-56
2022/11/25 18:32:39;;;;;;;21.40;4.60;;;;;;;10.96;98.96;101183.34;8312557;28;20045;-55
2022/11/25 18:36:39;;;;;;;20.98;6.15;;;;;;;10.82;100.00;101197.16;8316429;28;20127;-54
2022/11/25 18:40:42;;;;;;;20.95;6.63;;;;;;;10.58;100.00;101193.72;8302276;28;20041;-54
2022/11/25 18:44:43;;;;;;;31.05;8.23;;;;;;;10.52;100.00;101199.63;8301516;28;20049;-54
2022/11/25 18:48:44;;;;;;;21.58;8.35;;;;;;;10.37;100.00;101217.06;8312378;28;20038;-54
2022/11/25 18:52:46;;;;;;;17.52;5.90;;;;;;;10.35;100.00;101220.88;8321471;28;20056;-56
2022/11/25 18:56:50;;;;;;;19.73;6.50;;;;;;;9.97;100.00;101226.56;8308608;28;20096;-55
2022/11/25 19:00:52;;;;;;;19.98;6.38;;;;;;;9.87;100.00;101229.16;8320234;28;20044;-52
2022/11/25 19:04:52;;;;;;;28.00;7.57;;;;;;;9.77;100.00;101243.47;8318753;28;20046;-54
2022/11/25 19:08:53;;;;;;;23.52;8.07;;;;;;;9.82;100.00;101247.53;8325303;28;20037;-53
2022/11/25 19:12:59;;;;;;;34.47;8.77;;;;;;;9.90;100.00;101252.34;8320802;28;20037;-55
2022/11/25 19:17:05;;;;;;;19.75;7.05;;;;;;;9.82;100.00;101257.47;8327858;28;20414;-55
2022/11/25 19:21:13;;;;;;;28.60;7.53;;;;;;;9.56;100.00;101258.59;8327999;28;20064;-54
2022/11/25 19:25:15;;;;;;;24.45;8.55;;;;;;;9.29;100.00;101268.75;8292420;28;20069;-55
2022/11/25 19:29:20;;;;;;;20.50;5.60;;;;;;;9.65;100.00;101264.19;8311699;28;20526;-56
2022/11/25 19:33:29;;;;;;;21.55;6.20;;;;;;;9.76;100.00;101279.56;8305854;28;20034;-53
2022/11/25 19:37:30;;;;;;;19.00;6.07;;;;;;;9.82;100.00;101289.88;8321363;28;20079;-51